Flight Track Log - Related Links

Times and Time Zones

All times are in EDT time to prevent confusion due to time zone crossing. See the FSR15 flight status page for this flight to view local times or setup timezone preferences in your user account.

Time Position Orientation Groundspeed Altitude Reporting Facility
EDT Latitude Longitude Course Direction KTS MPH feet Rate Location/Type
Sun 01:10:23 PM 41.8000 -87.7167 56° Northeast 190 219 1,800  Level Chicago TRACON
Sun 01:10:56 PM 41.8117 -87.6936 56° Northeast 210 242 2,800 2,147 Climbing Chicago Center
Sun 01:11:58 PM 41.8189 -87.5956 84° East 249 287 5,200 2,903 Climbing Chicago Center
Sun 01:13:00 PM 41.8197 -87.4661 89° East 281 323 8,800 3,532 Climbing Chicago Center
Sun 01:14:02 PM 41.7992 -87.3503 103° East 313 360 12,500 3,387 Climbing Chicago Center
Sun 01:15:04 PM 41.7822 -87.2231 100° East 338 389 15,800 3,129 Climbing Chicago Center
Sun 01:17:08 PM 41.7633 -86.9156 95° East 425 489 22,200 3,016 Climbing Chicago Center
Sun 01:18:11 PM 41.7656 -86.7506 89° East 441 507 25,200 2,736 Climbing Chicago Center
Sun 01:19:13 PM 41.7667 -86.5844 89° East 442 509 27,900 2,468 Climbing Chicago Center
Sun 01:20:15 PM 41.7664 -86.3825 90° East 451 519 30,300 1,839 Climbing Chicago Center
Sun 01:21:17 PM 41.7689 -86.2069 89° East 468 539 31,700 1,161 Climbing Chicago Center
Sun 01:22:19 PM 41.7706 -86.0236 89° East 489 563 32,700 968 Climbing Chicago Center
Sun 01:23:21 PM 41.7708 -85.8342 90° East 505 581 33,700 1,161 Climbing Chicago Center
Sun 01:24:23 PM 41.7642 -85.6439 93° East 509 586 35,100 1,500 Climbing Chicago Center
Sun 01:25:25 PM 41.7578 -85.4492 92° East 508 585 36,800 1,742 Climbing Chicago Center
Sun 01:26:27 PM 41.7497 -85.2597 93° East 500 575 38,700 1,645 Climbing Chicago Center
Sun 01:27:29 PM 41.7431 -85.0783 93° East 489 563 40,200 1,113 Climbing Chicago Center
Sun 01:28:31 PM 41.7333 -84.8644 93° East 481 554 41,000 384 Climbing Chicago Center
Sun 01:29:34 PM 41.7250 -84.6778 93° East 499 574 41,000  Level Chicago Center
Sun 01:30:36 PM 41.7172 -84.4889 93° East 506 582 41,000  Level Chicago Center
Sun 01:31:38 PM 41.7289 -84.2992 85° East 512 589 41,000  Level Chicago Center
Sun 01:32:40 PM 41.7422 -84.1100 85° East 512 589 41,000  Level Chicago Center
Sun 01:33:42 PM 41.7569 -83.9206 84° East 513 590 41,000  Level Chicago Center
Sun 01:34:44 PM 41.7764 -83.6931 83° East 514 592 41,000  Level Chicago Center
Sun 01:35:44 PM 41.7867 -83.5211 85° East 503 579 41,000  Level Cleveland Center
Sun 01:36:44 PM 41.8039 -83.3325 83° East 503 579 41,000  Level Cleveland Center
Sun 01:37:44 PM 41.8214 -83.1189 84° East 516 594 41,000  Level Cleveland Center
Sun 01:38:44 PM 41.8025 -82.9342 98° East 502 578 41,000  Level Cleveland Center
Sun 01:39:44 PM 41.7389 -82.7733 118° Southeast 482 555 41,000  Level Cleveland Center
Sun 01:40:44 PM 41.6817 -82.6044 114° Southeast 487 560 41,000  Level Cleveland Center
Sun 01:41:44 PM 41.6239 -82.4386 115° Southeast 493 567 41,000  Level Cleveland Center
Sun 01:42:44 PM 41.5642 -82.2650 115° Southeast 498 573 41,000  Level Cleveland Center
Sun 01:43:44 PM 41.5119 -82.1167 115° Southeast 498 573 41,000  Level Cleveland Center
Sun 01:44:44 PM 41.4536 -81.9517 115° Southeast 493 567 41,000  Level Cleveland Center
Sun 01:45:44 PM 41.4011 -81.7983 114° Southeast 488 562 41,000  Level Cleveland Center
Sun 01:46:44 PM 41.3361 -81.6092 115° Southeast 494 568 41,000  Level Cleveland Center
Sun 01:47:44 PM 41.2772 -81.4453 116° Southeast 494 568 41,000  Level Cleveland Center
Sun 01:48:44 PM 41.2097 -81.2622 116° Southeast 499 574 41,000  Level Cleveland Center
Sun 01:49:44 PM 41.1500 -81.0989 116° Southeast 488 562 41,000  Level Cleveland Center
Sun 01:50:44 PM 41.1006 -80.9522 114° Southeast 488 562 41,000  Level Cleveland Center
Sun 01:51:44 PM 41.0406 -80.7894 116° Southeast 483 556 41,000  Level Cleveland Center
Sun 01:52:44 PM 40.9739 -80.6133 117° Southeast 483 556 41,000  Level Cleveland Center
Sun 01:53:44 PM 40.9156 -80.4511 115° Southeast 483 556 41,000  Level Cleveland Center
Sun 01:54:44 PM 40.8589 -80.3114 118° Southeast 483 556 41,000  Level Cleveland Center
Sun 01:55:44 PM 40.8000 -80.1497 116° Southeast 483 556 41,000  Level Cleveland Center
Sun 01:56:44 PM 40.7367 -79.9667 114° Southeast 483 556 41,000  Level Cleveland Center
Sun 01:57:44 PM 40.6794 -79.8028 115° Southeast 490 564 41,000  Level Cleveland Center
Sun 01:58:44 PM 40.6178 -79.6394 116° Southeast 490 564 41,000 -250 Level Cleveland Center
Sun 01:59:44 PM 40.5600 -79.4817 116° Southeast 485 558 40,500 -1,050 Descending Cleveland Center
Sun 02:00:44 PM 40.5000 -79.3189 116° Southeast 485 558 38,900 -1,650 Descending Cleveland Center
Sun 02:01:44 PM 40.4356 -79.1592 118° Southeast 485 558 37,200 -1,700 Descending Cleveland Center
Sun 02:02:44 PM 40.3772 -78.9969 115° Southeast 485 558 35,500 -1,700 Descending Cleveland Center
Sun 02:03:44 PM 40.3600 -78.8203 97° East 481 554 33,800 -1,900 Descending Cleveland Center
Sun 02:04:44 PM 40.3569 -78.6350 91° East 493 567 31,700 -2,150 Descending Cleveland Center
Sun 02:05:44 PM 40.3517 -78.4500 92° East 499 574 29,500 -1,932 Descending Cleveland Center
Sun 02:08:09 PM 40.3375 -78.0119 92° East 502 578 25,100 -1,337 Descending New Center
Sun 02:09:06 PM 40.3317 -77.8317 92° East 502 578 25,000 -51 Descending New Center
Sun 02:10:06 PM 40.3239 -77.6483 93° East 502 578 25,000 -50 Level New Center
Sun 02:11:07 PM 40.3194 -77.4708 92° East 497 572 24,900 -836 Descending New Center
Sun 02:12:08 PM 40.3117 -77.3094 94° East 497 572 23,300 -1,537 Descending New Center
Sun 02:13:08 PM 40.3025 -77.1344 94° East 497 572 21,800 -1,513 Descending New Center
Sun 02:14:07 PM 40.2781 -76.9661 101° East 484 557 20,300 -1,537 Descending New Center
Sun 02:15:09 PM 40.2492 -76.8031 103° East 467 537 18,700 -1,815 Descending New Center
Sun 02:16:06 PM 40.2222 -76.6319 102° East 452 520 16,700 -1,949 Descending New Center
Sun 02:17:06 PM 40.2006 -76.4781 100° East 438 504 14,900 -1,636 Descending New Center
Sun 02:18:07 PM 40.1764 -76.3319 102° East 425 489 13,400 -942 Descending New Center
Sun 02:19:07 PM 40.1550 -76.2081 103° East 406 467 13,000 -655 Descending New Center
Sun 02:20:06 PM 40.1344 -76.0625 100° East 374 430 12,100 -1,300 Descending New Center
Sun 02:21:07 PM 40.1167 -75.9497 102° East 336 387 10,400 -1,537 Descending New Center
Sun 02:22:07 PM 40.1000 -75.8536 103° East 315 362 9,000 -1,190 Descending New Center
Sun 02:23:08 PM 40.0814 -75.7492 103° East 303 349 8,000 -1,033 Descending New Center
Sun 02:24:09 PM 40.0811 -75.6542 90° East 278 320 6,900 -958 Descending New Center
Sun 02:25:07 PM 40.0869 -75.5678 85° East 254 292 6,100 -508 Descending New Center
Sun 02:26:07 PM 40.1067 -75.4878 72° East 241 277 5,900 -98 Descending New Center
Sun 02:27:09 PM 40.1350 -75.4053 66° East 236 272 5,900  Level New Center
Sun 02:28:06 PM 40.1608 -75.3283 66° East 236 272 5,900 -103 Level New Center
Sun 02:29:06 PM 40.1153 -75.2711 136° Southeast 187 215 5,700 -600 Descending New Center
Sun 02:30:06 PM 40.0625 -75.2325 151° Southeast 193 222 4,700 -836 Descending New Center
Sun 02:31:08 PM 40.0092 -75.2100 162° South 193 222 4,000 -393 Descending New Center
Sun 02:32:08 PM 39.9600 -75.1881 161° South 193 222 3,900  Descending New Center
Sun 02:33:06 PM 39.9047 -75.1628 161° South 193 222 4,000 -129 Climbing New Center
Sun 02:33:41 PM 39.8667 -75.1500 166° South 201 231 3,700 -884 Descending Philadelphia TRACON
Sun 02:34:41 PM 39.8167 -75.1333 166° South 195 224 2,600 -1,050 Descending Philadelphia TRACON
Sun 02:35:41 PM 39.8000 -75.1667 237° Southwest 180 207 1,600 -900 Descending Philadelphia TRACON
Sun 02:36:41 PM 39.8333 -75.2167 311° West 144 166 800 -800 Descending Philadelphia TRACON
Sun 02:38:00 PM 39.8667 -75.2333 113° Southeast  Level FlightAware
Sun 02:45:00 PM 39.8722 -75.2409 113° Southeast  Level Estimated

Login

Don't have an account? Register now (free) for customized features, flight alerts, and more!